sensor_id;sensor_type;location;lat;lon;timestamp;P1;durP1;ratioP1;P2;durP2;ratioP2
76856;SDS011;69705;44.686;37.628;2024-02-15T00:01:02;17.10;;;7.70;;
76856;SDS011;69705;44.686;37.628;2024-02-15T00:03:30;18.77;;;8.02;;
76856;SDS011;69705;44.686;37.628;2024-02-15T00:05:58;16.20;;;8.02;;
76856;SDS011;69705;44.686;37.628;2024-02-15T00:08:25;14.65;;;7.60;;
76856;SDS011;69705;44.686;37.628;2024-02-15T00:10:53;20.00;;;7.40;;
76856;SDS011;69705;44.686;37.628;2024-02-15T00:13:20;15.07;;;7.88;;
76856;SDS011;69705;44.686;37.628;2024-02-15T00:15:48;15.23;;;7.55;;
76856;SDS011;69705;44.686;37.628;2024-02-15T00:18:15;17.85;;;8.23;;
76856;SDS011;69705;44.686;37.628;2024-02-15T00:20:42;14.40;;;7.30;;
76856;SDS011;69705;44.686;37.628;2024-02-15T00:23:10;15.53;;;8.27;;
76856;SDS011;69705;44.686;37.628;2024-02-15T00:25:37;17.40;;;7.85;;
76856;SDS011;69705;44.686;37.628;2024-02-15T00:28:04;17.17;;;8.00;;
76856;SDS011;69705;44.686;37.628;2024-02-15T00:30:31;15.15;;;7.03;;
76856;SDS011;69705;44.686;37.628;2024-02-15T00:32:58;16.35;;;7.63;;
76856;SDS011;69705;44.686;37.628;2024-02-15T00:35:25;16.50;;;7.37;;
76856;SDS011;69705;44.686;37.628;2024-02-15T00:37:53;18.05;;;7.78;;
76856;SDS011;69705;44.686;37.628;2024-02-15T00:40:20;15.27;;;7.20;;
76856;SDS011;69705;44.686;37.628;2024-02-15T00:42:47;16.88;;;8.02;;
76856;SDS011;69705;44.686;37.628;2024-02-15T00:45:14;17.17;;;7.43;;
76856;SDS011;69705;44.686;37.628;2024-02-15T00:47:42;15.27;;;7.53;;
76856;SDS011;69705;44.686;37.628;2024-02-15T00:50:09;14.35;;;7.80;;
76856;SDS011;69705;44.686;37.628;2024-02-15T00:52:36;14.90;;;7.03;;
76856;SDS011;69705;44.686;37.628;2024-02-15T00:55:03;15.30;;;7.53;;
76856;SDS011;69705;44.686;37.628;2024-02-15T00:57:31;18.02;;;8.50;;
76856;SDS011;69705;44.686;37.628;2024-02-15T00:59:58;18.37;;;8.00;;
76856;SDS011;69705;44.686;37.628;2024-02-15T01:02:26;16.98;;;8.13;;
76856;SDS011;69705;44.686;37.628;2024-02-15T01:04:53;15.43;;;7.78;;
76856;SDS011;69705;44.686;37.628;2024-02-15T01:07:23;17.95;;;7.85;;
76856;SDS011;69705;44.686;37.628;2024-02-15T01:09:53;13.57;;;7.25;;
76856;SDS011;69705;44.686;37.628;2024-02-15T01:12:20;14.93;;;7.77;;
76856;SDS011;69705;44.686;37.628;2024-02-15T01:14:48;17.58;;;8.05;;
76856;SDS011;69705;44.686;37.628;2024-02-15T01:17:15;16.20;;;6.88;;
76856;SDS011;69705;44.686;37.628;2024-02-15T01:19:43;16.98;;;7.13;;
76856;SDS011;69705;44.686;37.628;2024-02-15T01:22:10;15.98;;;7.65;;
76856;SDS011;69705;44.686;37.628;2024-02-15T01:24:37;16.00;;;7.70;;
76856;SDS011;69705;44.686;37.628;2024-02-15T01:27:05;16.10;;;7.63;;
76856;SDS011;69705;44.686;37.628;2024-02-15T01:29:33;17.55;;;7.43;;
76856;SDS011;69705;44.686;37.628;2024-02-15T01:32:01;20.58;;;7.45;;
76856;SDS011;69705;44.686;37.628;2024-02-15T01:34:29;17.05;;;7.32;;
76856;SDS011;69705;44.686;37.628;2024-02-15T01:36:58;18.85;;;8.10;;
76856;SDS011;69705;44.686;37.628;2024-02-15T01:39:25;16.83;;;7.90;;
76856;SDS011;69705;44.686;37.628;2024-02-15T01:41:51;19.05;;;8.18;;
76856;SDS011;69705;44.686;37.628;2024-02-15T01:44:22;17.73;;;7.72;;
76856;SDS011;69705;44.686;37.628;2024-02-15T01:46:50;17.13;;;8.00;;
76856;SDS011;69705;44.686;37.628;2024-02-15T01:49:21;18.33;;;7.72;;
76856;SDS011;69705;44.686;37.628;2024-02-15T01:51:49;21.23;;;8.03;;
76856;SDS011;69705;44.686;37.628;2024-02-15T01:54:18;18.05;;;8.48;;
76856;SDS011;69705;44.686;37.628;2024-02-15T01:56:46;18.35;;;8.52;;
76856;SDS011;69705;44.686;37.628;2024-02-15T01:59:14;19.15;;;8.65;;
76856;SDS011;69705;44.686;37.628;2024-02-15T02:01:42;16.55;;;8.75;;
76856;SDS011;69705;44.686;37.628;2024-02-15T02:04:10;14.13;;;7.77;;
76856;SDS011;69705;44.686;37.628;2024-02-15T02:06:37;18.50;;;8.60;;
76856;SDS011;69705;44.686;37.628;2024-02-15T02:09:04;16.63;;;7.90;;
76856;SDS011;69705;44.686;37.628;2024-02-15T02:11:32;20.90;;;8.80;;
76856;SDS011;69705;44.686;37.628;2024-02-15T02:13:59;20.67;;;8.30;;
76856;SDS011;69705;44.686;37.628;2024-02-15T02:16:30;18.13;;;8.53;;
76856;SDS011;69705;44.686;37.628;2024-02-15T02:19:01;17.90;;;8.32;;
76856;SDS011;69705;44.686;37.628;2024-02-15T02:21:28;16.48;;;8.35;;
76856;SDS011;69705;44.686;37.628;2024-02-15T02:23:56;19.27;;;8.75;;
76856;SDS011;69705;44.686;37.628;2024-02-15T02:26:24;21.33;;;9.43;;
76856;SDS011;69705;44.686;37.628;2024-02-15T02:28:51;13.40;;;7.33;;
76856;SDS011;69705;44.686;37.628;2024-02-15T02:31:20;19.00;;;9.10;;
76856;SDS011;69705;44.686;37.628;2024-02-15T02:33:53;20.27;;;9.57;;
76856;SDS011;69705;44.686;37.628;2024-02-15T02:36:21;18.60;;;8.80;;
76856;SDS011;69705;44.686;37.628;2024-02-15T02:38:48;17.48;;;9.23;;
76856;SDS011;69705;44.686;37.628;2024-02-15T02:41:17;17.93;;;9.13;;
76856;SDS011;69705;44.686;37.628;2024-02-15T02:43:49;17.98;;;9.02;;
76856;SDS011;69705;44.686;37.628;2024-02-15T02:46:16;20.60;;;9.77;;
76856;SDS011;69705;44.686;37.628;2024-02-15T02:48:43;19.95;;;9.07;;
76856;SDS011;69705;44.686;37.628;2024-02-15T02:51:10;20.90;;;10.05;;
76856;SDS011;69705;44.686;37.628;2024-02-15T02:53:37;18.73;;;9.90;;
76856;SDS011;69705;44.686;37.628;2024-02-15T02:56:04;20.38;;;9.68;;
76856;SDS011;69705;44.686;37.628;2024-02-15T02:58:31;19.77;;;10.00;;
76856;SDS011;69705;44.686;37.628;2024-02-15T03:00:59;20.65;;;10.70;;
76856;SDS011;69705;44.686;37.628;2024-02-15T03:03:28;20.25;;;10.20;;
76856;SDS011;69705;44.686;37.628;2024-02-15T03:05:56;21.57;;;10.67;;
76856;SDS011;69705;44.686;37.628;2024-02-15T03:08:24;22.73;;;10.43;;
76856;SDS011;69705;44.686;37.628;2024-02-15T03:10:51;19.33;;;10.45;;
76856;SDS011;69705;44.686;37.628;2024-02-15T03:13:18;20.13;;;10.23;;
76856;SDS011;69705;44.686;37.628;2024-02-15T03:15:45;22.15;;;10.68;;
76856;SDS011;69705;44.686;37.628;2024-02-15T03:18:15;20.57;;;11.17;;
76856;SDS011;69705;44.686;37.628;2024-02-15T03:20:42;21.17;;;11.10;;
76856;SDS011;69705;44.686;37.628;2024-02-15T03:23:09;21.25;;;10.73;;
76856;SDS011;69705;44.686;37.628;2024-02-15T03:25:37;20.48;;;10.68;;
76856;SDS011;69705;44.686;37.628;2024-02-15T03:28:04;23.65;;;11.32;;
76856;SDS011;69705;44.686;37.628;2024-02-15T03:30:32;20.10;;;11.50;;
76856;SDS011;69705;44.686;37.628;2024-02-15T03:33:01;27.98;;;12.32;;
76856;SDS011;69705;44.686;37.628;2024-02-15T03:35:31;24.35;;;11.90;;
76856;SDS011;69705;44.686;37.628;2024-02-15T03:37:58;21.45;;;11.35;;
76856;SDS011;69705;44.686;37.628;2024-02-15T03:40:25;24.80;;;12.07;;
76856;SDS011;69705;44.686;37.628;2024-02-15T03:42:53;25.77;;;12.30;;
76856;SDS011;69705;44.686;37.628;2024-02-15T03:45:20;24.98;;;12.77;;
76856;SDS011;69705;44.686;37.628;2024-02-15T03:47:51;25.88;;;13.15;;
76856;SDS011;69705;44.686;37.628;2024-02-15T03:50:19;23.63;;;12.52;;
76856;SDS011;69705;44.686;37.628;2024-02-15T03:52:48;26.48;;;12.43;;
76856;SDS011;69705;44.686;37.628;2024-02-15T03:55:16;26.83;;;12.83;;
76856;SDS011;69705;44.686;37.628;2024-02-15T03:57:43;25.25;;;12.63;;
76856;SDS011;69705;44.686;37.628;2024-02-15T04:00:12;24.20;;;12.68;;
76856;SDS011;69705;44.686;37.628;2024-02-15T04:02:40;28.73;;;12.90;;
76856;SDS011;69705;44.686;37.628;2024-02-15T04:05:09;26.02;;;13.35;;
76856;SDS011;69705;44.686;37.628;2024-02-15T04:07:38;26.17;;;13.03;;
76856;SDS011;69705;44.686;37.628;2024-02-15T04:10:05;23.42;;;12.90;;
76856;SDS011;69705;44.686;37.628;2024-02-15T04:12:41;28.83;;;12.85;;
76856;SDS011;69705;44.686;37.628;2024-02-15T04:15:11;27.60;;;13.30;;
76856;SDS011;69705;44.686;37.628;2024-02-15T04:17:38;27.13;;;13.10;;
76856;SDS011;69705;44.686;37.628;2024-02-15T04:20:05;26.53;;;13.63;;
76856;SDS011;69705;44.686;37.628;2024-02-15T04:22:34;27.65;;;13.63;;
76856;SDS011;69705;44.686;37.628;2024-02-15T04:25:04;24.45;;;12.70;;
76856;SDS011;69705;44.686;37.628;2024-02-15T04:27:35;26.80;;;13.23;;
76856;SDS011;69705;44.686;37.628;2024-02-15T04:30:02;31.92;;;14.30;;
76856;SDS011;69705;44.686;37.628;2024-02-15T04:32:30;25.50;;;12.93;;
76856;SDS011;69705;44.686;37.628;2024-02-15T04:35:00;24.90;;;13.57;;
76856;SDS011;69705;44.686;37.628;2024-02-15T04:37:28;26.52;;;12.93;;
76856;SDS011;69705;44.686;37.628;2024-02-15T04:39:56;24.88;;;12.68;;
76856;SDS011;69705;44.686;37.628;2024-02-15T04:42:22;30.38;;;14.73;;
76856;SDS011;69705;44.686;37.628;2024-02-15T04:44:53;29.70;;;14.40;;
76856;SDS011;69705;44.686;37.628;2024-02-15T04:47:21;28.10;;;13.82;;
76856;SDS011;69705;44.686;37.628;2024-02-15T04:49:48;26.58;;;13.13;;
76856;SDS011;69705;44.686;37.628;2024-02-15T04:52:15;30.67;;;15.02;;
76856;SDS011;69705;44.686;37.628;2024-02-15T04:54:44;28.55;;;13.43;;
76856;SDS011;69705;44.686;37.628;2024-02-15T04:57:11;27.63;;;11.90;;
76856;SDS011;69705;44.686;37.628;2024-02-15T04:59:38;25.13;;;12.88;;
76856;SDS011;69705;44.686;37.628;2024-02-15T05:02:05;30.42;;;13.32;;
76856;SDS011;69705;44.686;37.628;2024-02-15T05:04:34;26.08;;;12.30;;
76856;SDS011;69705;44.686;37.628;2024-02-15T05:07:02;27.42;;;13.02;;
76856;SDS011;69705;44.686;37.628;2024-02-15T05:09:30;28.43;;;12.83;;
76856;SDS011;69705;44.686;37.628;2024-02-15T05:11:59;27.27;;;13.18;;
76856;SDS011;69705;44.686;37.628;2024-02-15T05:14:28;30.52;;;12.52;;
76856;SDS011;69705;44.686;37.628;2024-02-15T05:16:55;33.35;;;13.60;;
76856;SDS011;69705;44.686;37.628;2024-02-15T05:19:22;27.88;;;13.77;;
76856;SDS011;69705;44.686;37.628;2024-02-15T05:21:50;29.83;;;13.03;;
76856;SDS011;69705;44.686;37.628;2024-02-15T05:24:17;28.42;;;13.55;;
76856;SDS011;69705;44.686;37.628;2024-02-15T05:26:44;29.45;;;13.40;;
76856;SDS011;69705;44.686;37.628;2024-02-15T05:29:18;29.15;;;13.23;;
76856;SDS011;69705;44.686;37.628;2024-02-15T05:31:47;28.52;;;13.02;;
76856;SDS011;69705;44.686;37.628;2024-02-15T05:34:16;28.03;;;13.67;;
76856;SDS011;69705;44.686;37.628;2024-02-15T05:36:44;29.58;;;14.35;;
76856;SDS011;69705;44.686;37.628;2024-02-15T05:39:10;29.30;;;12.18;;
76856;SDS011;69705;44.686;37.628;2024-02-15T05:41:40;29.55;;;13.48;;
76856;SDS011;69705;44.686;37.628;2024-02-15T05:44:08;27.35;;;12.40;;
76856;SDS011;69705;44.686;37.628;2024-02-15T05:46:35;29.53;;;13.70;;
76856;SDS011;69705;44.686;37.628;2024-02-15T05:49:04;29.55;;;13.75;;
76856;SDS011;69705;44.686;37.628;2024-02-15T05:51:31;31.58;;;13.90;;
76856;SDS011;69705;44.686;37.628;2024-02-15T05:54:00;29.00;;;13.32;;
76856;SDS011;69705;44.686;37.628;2024-02-15T05:56:27;33.58;;;13.52;;
76856;SDS011;69705;44.686;37.628;2024-02-15T05:58:55;26.63;;;12.53;;
76856;SDS011;69705;44.686;37.628;2024-02-15T06:01:23;28.83;;;13.70;;
76856;SDS011;69705;44.686;37.628;2024-02-15T06:03:50;28.95;;;13.48;;
76856;SDS011;69705;44.686;37.628;2024-02-15T06:06:21;29.20;;;13.45;;
76856;SDS011;69705;44.686;37.628;2024-02-15T06:08:49;26.75;;;13.35;;
76856;SDS011;69705;44.686;37.628;2024-02-15T06:11:18;29.23;;;12.97;;
76856;SDS011;69705;44.686;37.628;2024-02-15T06:13:48;26.98;;;11.55;;
76856;SDS011;69705;44.686;37.628;2024-02-15T06:16:15;23.48;;;11.35;;
76856;SDS011;69705;44.686;37.628;2024-02-15T06:18:42;25.38;;;12.10;;
76856;SDS011;69705;44.686;37.628;2024-02-15T06:21:09;24.88;;;12.90;;
76856;SDS011;69705;44.686;37.628;2024-02-15T06:23:36;27.80;;;10.80;;
76856;SDS011;69705;44.686;37.628;2024-02-15T06:26:03;26.85;;;12.48;;
76856;SDS011;69705;44.686;37.628;2024-02-15T06:28:30;27.27;;;11.60;;
76856;SDS011;69705;44.686;37.628;2024-02-15T06:31:16;25.90;;;11.02;;
76856;SDS011;69705;44.686;37.628;2024-02-15T06:34:02;25.83;;;11.77;;
76856;SDS011;69705;44.686;37.628;2024-02-15T06:36:47;29.13;;;12.17;;
76856;SDS011;69705;44.686;37.628;2024-02-15T06:39:54;23.90;;;10.32;;
76856;SDS011;69705;44.686;37.628;2024-02-15T06:42:21;32.08;;;12.65;;
76856;SDS011;69705;44.686;37.628;2024-02-15T06:44:48;23.42;;;11.20;;
76856;SDS011;69705;44.686;37.628;2024-02-15T06:47:16;24.85;;;10.68;;
76856;SDS011;69705;44.686;37.628;2024-02-15T06:49:45;23.50;;;10.60;;
76856;SDS011;69705;44.686;37.628;2024-02-15T06:52:16;27.17;;;11.70;;
76856;SDS011;69705;44.686;37.628;2024-02-15T06:54:44;24.08;;;10.88;;
76856;SDS011;69705;44.686;37.628;2024-02-15T06:57:12;23.70;;;10.45;;
76856;SDS011;69705;44.686;37.628;2024-02-15T06:59:39;24.40;;;11.55;;
76856;SDS011;69705;44.686;37.628;2024-02-15T07:02:06;26.90;;;11.00;;
76856;SDS011;69705;44.686;37.628;2024-02-15T07:04:34;28.45;;;11.18;;
76856;SDS011;69705;44.686;37.628;2024-02-15T07:07:00;24.98;;;11.02;;
76856;SDS011;69705;44.686;37.628;2024-02-15T07:09:29;29.30;;;13.77;;
76856;SDS011;69705;44.686;37.628;2024-02-15T07:11:56;26.80;;;10.95;;
76856;SDS011;69705;44.686;37.628;2024-02-15T07:14:24;24.67;;;10.17;;
76856;SDS011;69705;44.686;37.628;2024-02-15T07:16:51;19.63;;;8.65;;
76856;SDS011;69705;44.686;37.628;2024-02-15T07:19:18;25.40;;;10.70;;
76856;SDS011;69705;44.686;37.628;2024-02-15T07:21:45;23.77;;;10.63;;
76856;SDS011;69705;44.686;37.628;2024-02-15T07:24:14;26.08;;;10.75;;
76856;SDS011;69705;44.686;37.628;2024-02-15T07:26:41;23.43;;;9.07;;
76856;SDS011;69705;44.686;37.628;2024-02-15T07:29:08;25.90;;;9.88;;
76856;SDS011;69705;44.686;37.628;2024-02-15T07:31:36;22.55;;;10.00;;
76856;SDS011;69705;44.686;37.628;2024-02-15T07:34:03;21.65;;;9.95;;
76856;SDS011;69705;44.686;37.628;2024-02-15T07:36:31;24.98;;;10.80;;
76856;SDS011;69705;44.686;37.628;2024-02-15T07:38:58;26.17;;;10.63;;
76856;SDS011;69705;44.686;37.628;2024-02-15T07:41:27;24.20;;;9.75;;
76856;SDS011;69705;44.686;37.628;2024-02-15T07:43:54;23.58;;;9.68;;
76856;SDS011;69705;44.686;37.628;2024-02-15T07:46:21;23.60;;;10.32;;
76856;SDS011;69705;44.686;37.628;2024-02-15T07:48:50;25.55;;;9.95;;
76856;SDS011;69705;44.686;37.628;2024-02-15T07:51:18;21.80;;;9.33;;
76856;SDS011;69705;44.686;37.628;2024-02-15T07:53:46;22.20;;;9.15;;
76856;SDS011;69705;44.686;37.628;2024-02-15T07:56:14;23.38;;;9.32;;
76856;SDS011;69705;44.686;37.628;2024-02-15T07:58:43;23.65;;;9.35;;
76856;SDS011;69705;44.686;37.628;2024-02-15T08:01:14;21.02;;;8.25;;
76856;SDS011;69705;44.686;37.628;2024-02-15T08:03:42;18.33;;;8.40;;
76856;SDS011;69705;44.686;37.628;2024-02-15T08:06:12;20.80;;;8.50;;
76856;SDS011;69705;44.686;37.628;2024-02-15T08:08:41;18.90;;;8.07;;
76856;SDS011;69705;44.686;37.628;2024-02-15T08:11:09;23.67;;;8.88;;
76856;SDS011;69705;44.686;37.628;2024-02-15T08:13:43;22.50;;;9.30;;
76856;SDS011;69705;44.686;37.628;2024-02-15T08:16:11;22.30;;;7.93;;
76856;SDS011;69705;44.686;37.628;2024-02-15T08:18:38;22.50;;;8.02;;
76856;SDS011;69705;44.686;37.628;2024-02-15T08:21:05;21.05;;;8.13;;
76856;SDS011;69705;44.686;37.628;2024-02-15T08:23:32;17.45;;;7.30;;
76856;SDS011;69705;44.686;37.628;2024-02-15T08:25:59;19.15;;;7.43;;
76856;SDS011;69705;44.686;37.628;2024-02-15T08:28:27;17.03;;;6.93;;
76856;SDS011;69705;44.686;37.628;2024-02-15T08:30:55;16.67;;;7.50;;
76856;SDS011;69705;44.686;37.628;2024-02-15T08:33:23;22.73;;;8.15;;
76856;SDS011;69705;44.686;37.628;2024-02-15T08:35:51;16.73;;;6.90;;
76856;SDS011;69705;44.686;37.628;2024-02-15T08:38:21;24.80;;;7.63;;
76856;SDS011;69705;44.686;37.628;2024-02-15T08:40:49;24.13;;;7.00;;
76856;SDS011;69705;44.686;37.628;2024-02-15T08:43:16;16.13;;;7.00;;
76856;SDS011;69705;44.686;37.628;2024-02-15T08:45:43;22.27;;;7.32;;
76856;SDS011;69705;44.686;37.628;2024-02-15T08:48:11;17.10;;;6.65;;
76856;SDS011;69705;44.686;37.628;2024-02-15T08:50:38;19.90;;;6.28;;
76856;SDS011;69705;44.686;37.628;2024-02-15T08:53:07;14.73;;;6.03;;
76856;SDS011;69705;44.686;37.628;2024-02-15T08:55:34;21.10;;;6.95;;
76856;SDS011;69705;44.686;37.628;2024-02-15T08:58:02;15.73;;;6.35;;
76856;SDS011;69705;44.686;37.628;2024-02-15T09:00:30;14.00;;;6.47;;
76856;SDS011;69705;44.686;37.628;2024-02-15T09:02:57;13.38;;;5.70;;
76856;SDS011;69705;44.686;37.628;2024-02-15T09:05:24;14.23;;;5.70;;
76856;SDS011;69705;44.686;37.628;2024-02-15T09:07:51;14.25;;;5.57;;
76856;SDS011;69705;44.686;37.628;2024-02-15T09:10:19;16.27;;;5.85;;
76856;SDS011;69705;44.686;37.628;2024-02-15T09:12:48;16.50;;;5.72;;
76856;SDS011;69705;44.686;37.628;2024-02-15T09:15:16;16.30;;;6.38;;
76856;SDS011;69705;44.686;37.628;2024-02-15T09:17:43;18.20;;;6.10;;
76856;SDS011;69705;44.686;37.628;2024-02-15T09:20:12;12.75;;;5.70;;
76856;SDS011;69705;44.686;37.628;2024-02-15T09:22:47;15.88;;;5.50;;
76856;SDS011;69705;44.686;37.628;2024-02-15T09:25:15;17.50;;;5.68;;
76856;SDS011;69705;44.686;37.628;2024-02-15T09:27:42;16.20;;;5.25;;
76856;SDS011;69705;44.686;37.628;2024-02-15T09:30:09;19.47;;;6.13;;
76856;SDS011;69705;44.686;37.628;2024-02-15T09:32:38;11.90;;;5.47;;
76856;SDS011;69705;44.686;37.628;2024-02-15T09:35:06;15.13;;;6.03;;
76856;SDS011;69705;44.686;37.628;2024-02-15T09:37:38;14.70;;;5.20;;
76856;SDS011;69705;44.686;37.628;2024-02-15T09:40:11;12.52;;;5.35;;
76856;SDS011;69705;44.686;37.628;2024-02-15T09:42:39;13.20;;;5.20;;
76856;SDS011;69705;44.686;37.628;2024-02-15T09:45:06;11.52;;;5.30;;
76856;SDS011;69705;44.686;37.628;2024-02-15T09:47:37;15.18;;;5.85;;
76856;SDS011;69705;44.686;37.628;2024-02-15T09:50:09;12.18;;;5.20;;
76856;SDS011;69705;44.686;37.628;2024-02-15T09:52:44;13.43;;;5.43;;
76856;SDS011;69705;44.686;37.628;2024-02-15T09:55:12;12.80;;;5.10;;
76856;SDS011;69705;44.686;37.628;2024-02-15T09:57:43;23.48;;;10.77;;
76856;SDS011;69705;44.686;37.628;2024-02-15T10:00:11;13.93;;;5.10;;
76856;SDS011;69705;44.686;37.628;2024-02-15T10:02:44;11.85;;;5.35;;
76856;SDS011;69705;44.686;37.628;2024-02-15T10:05:14;11.98;;;5.30;;
76856;SDS011;69705;44.686;37.628;2024-02-15T10:07:41;15.53;;;5.23;;
76856;SDS011;69705;44.686;37.628;2024-02-15T10:10:24;11.75;;;4.68;;
76856;SDS011;69705;44.686;37.628;2024-02-15T10:12:53;13.10;;;5.50;;
76856;SDS011;69705;44.686;37.628;2024-02-15T10:15:27;11.52;;;5.00;;
76856;SDS011;69705;44.686;37.628;2024-02-15T10:17:56;29.65;;;10.52;;
76856;SDS011;69705;44.686;37.628;2024-02-15T10:20:27;9.73;;;4.43;;
76856;SDS011;69705;44.686;37.628;2024-02-15T10:25:26;11.25;;;4.65;;
76856;SDS011;69705;44.686;37.628;2024-02-15T10:28:03;10.13;;;4.60;;
76856;SDS011;69705;44.686;37.628;2024-02-15T10:30:34;10.52;;;4.82;;
76856;SDS011;69705;44.686;37.628;2024-02-15T10:33:06;12.40;;;4.60;;
76856;SDS011;69705;44.686;37.628;2024-02-15T10:35:37;15.93;;;5.32;;
76856;SDS011;69705;44.686;37.628;2024-02-15T10:38:10;30.30;;;13.40;;
76856;SDS011;69705;44.686;37.628;2024-02-15T10:40:39;13.75;;;5.05;;
76856;SDS011;69705;44.686;37.628;2024-02-15T10:43:09;13.10;;;4.75;;
76856;SDS011;69705;44.686;37.628;2024-02-15T10:45:39;11.60;;;4.80;;
76856;SDS011;69705;44.686;37.628;2024-02-15T10:48:10;13.30;;;5.00;;
76856;SDS011;69705;44.686;37.628;2024-02-15T10:50:39;12.13;;;4.93;;
76856;SDS011;69705;44.686;37.628;2024-02-15T10:53:42;12.20;;;4.65;;
76856;SDS011;69705;44.686;37.628;2024-02-15T10:56:12;17.17;;;5.07;;
76856;SDS011;69705;44.686;37.628;2024-02-15T10:59:10;11.87;;;4.50;;
76856;SDS011;69705;44.686;37.628;2024-02-15T11:01:59;9.13;;;4.43;;
76856;SDS011;69705;44.686;37.628;2024-02-15T11:04:31;11.25;;;5.03;;
76856;SDS011;69705;44.686;37.628;2024-02-15T11:07:02;11.18;;;4.50;;
76856;SDS011;69705;44.686;37.628;2024-02-15T11:09:32;16.73;;;4.88;;
76856;SDS011;69705;44.686;37.628;2024-02-15T11:11:59;10.87;;;4.30;;
76856;SDS011;69705;44.686;37.628;2024-02-15T11:14:30;12.10;;;4.97;;
76856;SDS011;69705;44.686;37.628;2024-02-15T11:17:01;12.93;;;4.55;;
76856;SDS011;69705;44.686;37.628;2024-02-15T11:22:12;9.25;;;4.65;;
76856;SDS011;69705;44.686;37.628;2024-02-15T11:24:48;11.43;;;4.37;;
76856;SDS011;69705;44.686;37.628;2024-02-15T11:30:10;13.10;;;4.50;;
76856;SDS011;69705;44.686;37.628;2024-02-15T11:32:57;12.32;;;4.63;;
76856;SDS011;69705;44.686;37.628;2024-02-15T11:35:25;11.85;;;4.68;;
76856;SDS011;69705;44.686;37.628;2024-02-15T11:37:55;9.70;;;4.70;;
76856;SDS011;69705;44.686;37.628;2024-02-15T11:43:08;11.75;;;4.30;;
76856;SDS011;69705;44.686;37.628;2024-02-15T11:45:37;10.95;;;4.75;;
76856;SDS011;69705;44.686;37.628;2024-02-15T11:48:07;11.35;;;4.68;;
76856;SDS011;69705;44.686;37.628;2024-02-15T11:50:38;17.23;;;7.53;;
76856;SDS011;69705;44.686;37.628;2024-02-15T11:53:06;26.13;;;11.48;;
76856;SDS011;69705;44.686;37.628;2024-02-15T11:55:37;35.40;;;16.58;;
76856;SDS011;69705;44.686;37.628;2024-02-15T11:58:05;20.55;;;8.27;;
76856;SDS011;69705;44.686;37.628;2024-02-15T12:00:36;22.90;;;9.55;;
76856;SDS011;69705;44.686;37.628;2024-02-15T12:03:30;15.67;;;7.80;;
76856;SDS011;69705;44.686;37.628;2024-02-15T12:06:19;14.52;;;7.20;;
76856;SDS011;69705;44.686;37.628;2024-02-15T12:09:05;17.33;;;6.43;;
76856;SDS011;69705;44.686;37.628;2024-02-15T12:11:57;16.02;;;7.07;;
76856;SDS011;69705;44.686;37.628;2024-02-15T12:14:43;10.68;;;5.60;;
76856;SDS011;69705;44.686;37.628;2024-02-15T12:17:28;11.43;;;5.50;;
76856;SDS011;69705;44.686;37.628;2024-02-15T12:20:14;12.20;;;4.88;;
76856;SDS011;69705;44.686;37.628;2024-02-15T12:22:43;9.63;;;4.85;;
76856;SDS011;69705;44.686;37.628;2024-02-15T12:25:15;14.90;;;5.17;;
76856;SDS011;69705;44.686;37.628;2024-02-15T12:27:43;12.32;;;4.85;;
76856;SDS011;69705;44.686;37.628;2024-02-15T12:30:14;11.30;;;4.83;;
76856;SDS011;69705;44.686;37.628;2024-02-15T12:32:52;10.13;;;5.18;;
76856;SDS011;69705;44.686;37.628;2024-02-15T12:35:34;16.83;;;6.30;;
76856;SDS011;69705;44.686;37.628;2024-02-15T12:38:02;9.93;;;5.30;;
76856;SDS011;69705;44.686;37.628;2024-02-15T12:40:35;11.48;;;4.65;;
76856;SDS011;69705;44.686;37.628;2024-02-15T12:43:06;11.07;;;4.50;;
76856;SDS011;69705;44.686;37.628;2024-02-15T12:45:38;9.38;;;4.05;;
76856;SDS011;69705;44.686;37.628;2024-02-15T12:48:07;10.60;;;4.65;;
76856;SDS011;69705;44.686;37.628;2024-02-15T12:50:35;12.20;;;4.32;;
76856;SDS011;69705;44.686;37.628;2024-02-15T12:53:03;11.95;;;4.38;;
76856;SDS011;69705;44.686;37.628;2024-02-15T12:55:32;10.00;;;4.00;;
76856;SDS011;69705;44.686;37.628;2024-02-15T12:58:01;11.65;;;4.15;;
76856;SDS011;69705;44.686;37.628;2024-02-15T13:00:30;10.38;;;4.13;;
76856;SDS011;69705;44.686;37.628;2024-02-15T13:03:02;11.43;;;4.30;;
76856;SDS011;69705;44.686;37.628;2024-02-15T13:05:30;12.15;;;4.15;;
76856;SDS011;69705;44.686;37.628;2024-02-15T13:07:58;9.37;;;4.17;;
76856;SDS011;69705;44.686;37.628;2024-02-15T13:10:25;8.98;;;4.10;;
76856;SDS011;69705;44.686;37.628;2024-02-15T13:12:52;8.48;;;3.80;;
76856;SDS011;69705;44.686;37.628;2024-02-15T13:15:19;13.38;;;4.15;;
76856;SDS011;69705;44.686;37.628;2024-02-15T13:17:48;12.13;;;4.63;;
76856;SDS011;69705;44.686;37.628;2024-02-15T13:20:18;14.80;;;4.07;;
76856;SDS011;69705;44.686;37.628;2024-02-15T13:22:46;12.38;;;4.28;;
76856;SDS011;69705;44.686;37.628;2024-02-15T13:25:17;11.65;;;4.85;;
76856;SDS011;69705;44.686;37.628;2024-02-15T13:27:44;9.75;;;4.80;;
76856;SDS011;69705;44.686;37.628;2024-02-15T13:30:12;10.40;;;4.60;;
76856;SDS011;69705;44.686;37.628;2024-02-15T13:32:40;10.87;;;5.33;;
76856;SDS011;69705;44.686;37.628;2024-02-15T13:35:08;12.43;;;4.38;;
76856;SDS011;69705;44.686;37.628;2024-02-15T13:37:48;9.82;;;4.10;;
76856;SDS011;69705;44.686;37.628;2024-02-15T13:40:16;17.13;;;7.70;;
76856;SDS011;69705;44.686;37.628;2024-02-15T13:42:43;10.93;;;5.82;;
76856;SDS011;69705;44.686;37.628;2024-02-15T13:45:20;14.27;;;4.37;;
76856;SDS011;69705;44.686;37.628;2024-02-15T13:47:51;14.73;;;4.85;;
76856;SDS011;69705;44.686;37.628;2024-02-15T13:50:19;12.48;;;4.55;;
76856;SDS011;69705;44.686;37.628;2024-02-15T13:52:46;11.70;;;5.20;;
76856;SDS011;69705;44.686;37.628;2024-02-15T13:55:14;12.02;;;5.85;;
76856;SDS011;69705;44.686;37.628;2024-02-15T13:57:43;9.90;;;4.70;;
76856;SDS011;69705;44.686;37.628;2024-02-15T14:00:11;14.13;;;4.80;;
76856;SDS011;69705;44.686;37.628;2024-02-15T14:02:42;10.35;;;4.75;;
76856;SDS011;69705;44.686;37.628;2024-02-15T14:05:09;11.13;;;4.75;;
76856;SDS011;69705;44.686;37.628;2024-02-15T14:07:38;16.33;;;6.18;;
76856;SDS011;69705;44.686;37.628;2024-02-15T14:10:06;13.87;;;5.80;;
76856;SDS011;69705;44.686;37.628;2024-02-15T14:12:34;16.60;;;7.30;;
76856;SDS011;69705;44.686;37.628;2024-02-15T14:15:01;24.38;;;10.73;;
76856;SDS011;69705;44.686;37.628;2024-02-15T14:17:29;19.85;;;7.72;;
76856;SDS011;69705;44.686;37.628;2024-02-15T14:19:56;37.38;;;14.80;;
76856;SDS011;69705;44.686;37.628;2024-02-15T14:22:23;13.30;;;5.87;;
76856;SDS011;69705;44.686;37.628;2024-02-15T14:24:54;13.20;;;6.13;;
76856;SDS011;69705;44.686;37.628;2024-02-15T14:27:22;16.92;;;6.03;;
76856;SDS011;69705;44.686;37.628;2024-02-15T14:29:50;20.02;;;5.25;;
76856;SDS011;69705;44.686;37.628;2024-02-15T14:32:40;13.55;;;5.72;;
76856;SDS011;69705;44.686;37.628;2024-02-15T14:35:28;13.47;;;4.47;;
76856;SDS011;69705;44.686;37.628;2024-02-15T14:38:04;14.38;;;6.35;;
76856;SDS011;69705;44.686;37.628;2024-02-15T14:40:40;13.43;;;5.78;;
76856;SDS011;69705;44.686;37.628;2024-02-15T14:43:09;65.22;;;19.80;;